sensor_id;sensor_type;location;lat;lon;timestamp;temperature;humidity
14248;DHT22;7208;49.826;6.004;2022-10-15T10:47:25;16.40;99.90
14248;DHT22;7208;49.826;6.004;2022-10-15T10:49:53;16.00;99.90
14248;DHT22;7208;49.826;6.004;2022-10-15T10:52:21;15.90;99.90
14248;DHT22;7208;49.826;6.004;2022-10-15T10:55:03;16.00;99.90
14248;DHT22;7208;49.826;6.004;2022-10-15T11:00:38;15.90;99.90
14248;DHT22;7208;49.826;6.004;2022-10-15T11:03:20;15.90;99.90
14248;DHT22;7208;49.826;6.004;2022-10-15T11:05:48;15.90;99.90
14248;DHT22;7208;49.826;6.004;2022-10-15T11:08:27;15.90;99.90
14248;DHT22;7208;49.826;6.004;2022-10-15T11:11:04;15.90;99.90
14248;DHT22;7208;49.826;6.004;2022-10-15T11:27:55;16.20;99.90
14248;DHT22;7208;49.826;6.004;2022-10-15T11:33:37;16.20;99.90
14248;DHT22;7208;49.826;6.004;2022-10-15T11:47:49;16.10;99.90
14248;DHT22;7208;49.826;6.004;2022-10-15T11:50:26;16.10;99.90
14248;DHT22;7208;49.826;6.004;2022-10-15T11:58:11;16.10;99.90
14248;DHT22;7208;49.826;6.004;2022-10-15T12:00:54;16.00;99.90
14248;DHT22;7208;49.826;6.004;2022-10-15T12:03:26;16.00;99.90
14248;DHT22;7208;49.826;6.004;2022-10-15T12:06:20;16.10;99.90
14248;DHT22;7208;49.826;6.004;2022-10-15T12:08:47;16.10;99.90
14248;DHT22;7208;49.826;6.004;2022-10-15T12:11:28;16.10;99.90
14248;DHT22;7208;49.826;6.004;2022-10-15T12:14:21;16.10;99.90
14248;DHT22;7208;49.826;6.004;2022-10-15T12:17:03;16.00;99.90
14248;DHT22;7208;49.826;6.004;2022-10-15T12:19:48;16.00;99.90
14248;DHT22;7208;49.826;6.004;2022-10-15T12:22:32;16.10;99.90
14248;DHT22;7208;49.826;6.004;2022-10-15T12:24:58;16.10;99.90
14248;DHT22;7208;49.826;6.004;2022-10-15T12:27:34;16.00;99.90
14248;DHT22;7208;49.826;6.004;2022-10-15T12:32:28;16.00;99.90
14248;DHT22;7208;49.826;6.004;2022-10-15T12:35:00;16.00;99.90
14248;DHT22;7208;49.826;6.004;2022-10-15T12:37:29;16.00;99.90
14248;DHT22;7208;49.826;6.004;2022-10-15T12:39:58;16.00;99.90
14248;DHT22;7208;49.826;6.004;2022-10-15T12:42:32;16.00;99.90
14248;DHT22;7208;49.826;6.004;2022-10-15T12:45:02;16.10;99.90
14248;DHT22;7208;49.826;6.004;2022-10-15T12:47:48;16.20;99.90
14248;DHT22;7208;49.826;6.004;2022-10-15T12:55:27;16.20;99.90
14248;DHT22;7208;49.826;6.004;2022-10-15T13:00:34;16.20;99.90
14248;DHT22;7208;49.826;6.004;2022-10-15T13:03:16;16.10;99.90
14248;DHT22;7208;49.826;6.004;2022-10-15T13:05:43;16.10;99.90
14248;DHT22;7208;49.826;6.004;2022-10-15T13:08:18;16.20;99.90
14248;DHT22;7208;49.826;6.004;2022-10-15T13:10:53;16.10;99.90
14248;DHT22;7208;49.826;6.004;2022-10-15T13:13:25;16.30;99.90
14248;DHT22;7208;49.826;6.004;2022-10-15T13:15:57;16.30;99.90
14248;DHT22;7208;49.826;6.004;2022-10-15T13:18:24;16.20;99.90
14248;DHT22;7208;49.826;6.004;2022-10-15T13:20:52;16.20;99.90
14248;DHT22;7208;49.826;6.004;2022-10-15T13:25:48;16.20;99.90
14248;DHT22;7208;49.826;6.004;2022-10-15T13:28:30;16.20;99.90
14248;DHT22;7208;49.826;6.004;2022-10-15T13:30:57;16.10;99.90
14248;DHT22;7208;49.826;6.004;2022-10-15T13:33:23;16.20;99.90
14248;DHT22;7208;49.826;6.004;2022-10-15T13:35:49;16.40;99.90
14248;DHT22;7208;49.826;6.004;2022-10-15T13:38:24;16.40;99.90
14248;DHT22;7208;49.826;6.004;2022-10-15T13:40:52;16.40;99.90
14248;DHT22;7208;49.826;6.004;2022-10-15T13:43:23;16.40;99.90
14248;DHT22;7208;49.826;6.004;2022-10-15T13:45:57;16.50;99.90
14248;DHT22;7208;49.826;6.004;2022-10-15T13:48:26;16.60;99.90
14248;DHT22;7208;49.826;6.004;2022-10-15T13:50:56;16.40;99.90
14248;DHT22;7208;49.826;6.004;2022-10-15T13:53:32;16.40;99.90
14248;DHT22;7208;49.826;6.004;2022-10-15T13:56:00;16.40;99.90
14248;DHT22;7208;49.826;6.004;2022-10-15T13:58:29;16.40;99.90
14248;DHT22;7208;49.826;6.004;2022-10-15T14:01:17;16.30;99.90
14248;DHT22;7208;49.826;6.004;2022-10-15T14:06:15;16.40;99.90
14248;DHT22;7208;49.826;6.004;2022-10-15T14:08:42;16.50;99.90
14248;DHT22;7208;49.826;6.004;2022-10-15T14:11:11;16.50;99.90
14248;DHT22;7208;49.826;6.004;2022-10-15T14:13:49;16.50;99.90
14248;DHT22;7208;49.826;6.004;2022-10-15T14:16:32;16.50;99.90
14248;DHT22;7208;49.826;6.004;2022-10-15T14:21:33;16.80;99.90
14248;DHT22;7208;49.826;6.004;2022-10-15T14:24:09;16.80;99.90
14248;DHT22;7208;49.826;6.004;2022-10-15T14:26:36;16.80;99.90
14248;DHT22;7208;49.826;6.004;2022-10-15T14:29:04;16.70;99.90
14248;DHT22;7208;49.826;6.004;2022-10-15T14:31:43;16.70;99.90
14248;DHT22;7208;49.826;6.004;2022-10-15T14:36:58;16.70;99.90
14248;DHT22;7208;49.826;6.004;2022-10-15T14:39:35;16.60;99.90
14248;DHT22;7208;49.826;6.004;2022-10-15T14:42:03;16.70;99.90
14248;DHT22;7208;49.826;6.004;2022-10-15T14:44:44;16.70;99.90
14248;DHT22;7208;49.826;6.004;2022-10-15T14:47:22;16.80;99.90
14248;DHT22;7208;49.826;6.004;2022-10-15T14:49:51;16.80;99.90
14248;DHT22;7208;49.826;6.004;2022-10-15T14:52:18;16.80;99.90
14248;DHT22;7208;49.826;6.004;2022-10-15T14:55:04;16.80;99.90
14248;DHT22;7208;49.826;6.004;2022-10-15T14:57:38;16.80;99.90
14248;DHT22;7208;49.826;6.004;2022-10-15T15:00:25;16.80;99.90
14248;DHT22;7208;49.826;6.004;2022-10-15T15:02:55;16.80;99.90
14248;DHT22;7208;49.826;6.004;2022-10-15T15:05:26;16.70;99.90
14248;DHT22;7208;49.826;6.004;2022-10-15T15:07:53;16.70;99.90
14248;DHT22;7208;49.826;6.004;2022-10-15T15:10:19;16.70;99.90
14248;DHT22;7208;49.826;6.004;2022-10-15T15:12:49;16.70;99.90
14248;DHT22;7208;49.826;6.004;2022-10-15T15:15:17;16.70;99.90
14248;DHT22;7208;49.826;6.004;2022-10-15T15:17:43;16.60;99.90
14248;DHT22;7208;49.826;6.004;2022-10-15T15:20:10;16.60;99.90
14248;DHT22;7208;49.826;6.004;2022-10-15T15:22:36;16.60;99.90
14248;DHT22;7208;49.826;6.004;2022-10-15T15:25:13;16.60;99.90
14248;DHT22;7208;49.826;6.004;2022-10-15T15:27:39;16.60;99.90
14248;DHT22;7208;49.826;6.004;2022-10-15T15:30:06;16.60;99.90
14248;DHT22;7208;49.826;6.004;2022-10-15T15:32:33;16.50;99.90
14248;DHT22;7208;49.826;6.004;2022-10-15T15:34:59;16.50;99.90
14248;DHT22;7208;49.826;6.004;2022-10-15T15:37:25;16.50;99.90
14248;DHT22;7208;49.826;6.004;2022-10-15T15:39:52;16.50;99.90
14248;DHT22;7208;49.826;6.004;2022-10-15T15:42:24;16.40;99.90
14248;DHT22;7208;49.826;6.004;2022-10-15T15:44:50;16.40;99.90
14248;DHT22;7208;49.826;6.004;2022-10-15T15:47:16;16.30;99.90
14248;DHT22;7208;49.826;6.004;2022-10-15T15:49:41;16.30;99.90
14248;DHT22;7208;49.826;6.004;2022-10-15T15:52:10;16.20;99.90
14248;DHT22;7208;49.826;6.004;2022-10-15T15:54:41;16.20;99.90
14248;DHT22;7208;49.826;6.004;2022-10-15T15:57:07;16.20;99.90
14248;DHT22;7208;49.826;6.004;2022-10-15T15:59:33;16.10;99.90
14248;DHT22;7208;49.826;6.004;2022-10-15T16:01:59;16.10;99.90
14248;DHT22;7208;49.826;6.004;2022-10-15T16:04:24;16.10;99.90
14248;DHT22;7208;49.826;6.004;2022-10-15T16:06:50;16.00;99.90
14248;DHT22;7208;49.826;6.004;2022-10-15T16:09:17;16.00;99.90
14248;DHT22;7208;49.826;6.004;2022-10-15T16:11:43;15.90;99.90
14248;DHT22;7208;49.826;6.004;2022-10-15T16:14:09;15.90;99.90
14248;DHT22;7208;49.826;6.004;2022-10-15T16:16:35;15.80;99.90
14248;DHT22;7208;49.826;6.004;2022-10-15T16:19:02;15.80;99.90
14248;DHT22;7208;49.826;6.004;2022-10-15T16:21:28;15.70;99.90
14248;DHT22;7208;49.826;6.004;2022-10-15T16:23:56;15.70;99.90
14248;DHT22;7208;49.826;6.004;2022-10-15T16:26:22;15.60;99.90
14248;DHT22;7208;49.826;6.004;2022-10-15T16:28:48;15.60;99.90
14248;DHT22;7208;49.826;6.004;2022-10-15T16:31:15;15.50;99.90
14248;DHT22;7208;49.826;6.004;2022-10-15T16:33:41;15.50;99.90
14248;DHT22;7208;49.826;6.004;2022-10-15T16:36:06;15.50;99.90
14248;DHT22;7208;49.826;6.004;2022-10-15T16:38:32;15.50;99.90
14248;DHT22;7208;49.826;6.004;2022-10-15T16:40:58;15.50;99.90
14248;DHT22;7208;49.826;6.004;2022-10-15T16:43:25;15.50;99.90
14248;DHT22;7208;49.826;6.004;2022-10-15T16:45:57;15.50;99.90
14248;DHT22;7208;49.826;6.004;2022-10-15T16:48:24;15.60;99.90
14248;DHT22;7208;49.826;6.004;2022-10-15T16:51:12;15.60;99.90
14248;DHT22;7208;49.826;6.004;2022-10-15T16:53:39;15.60;99.90
14248;DHT22;7208;49.826;6.004;2022-10-15T16:56:08;15.60;99.90
14248;DHT22;7208;49.826;6.004;2022-10-15T16:58:34;15.60;99.90
14248;DHT22;7208;49.826;6.004;2022-10-15T17:01:02;15.60;99.90
14248;DHT22;7208;49.826;6.004;2022-10-15T17:03:29;15.60;99.90
14248;DHT22;7208;49.826;6.004;2022-10-15T17:05:59;15.60;99.90
14248;DHT22;7208;49.826;6.004;2022-10-15T17:08:28;15.50;99.90
14248;DHT22;7208;49.826;6.004;2022-10-15T17:10:55;15.50;99.90
14248;DHT22;7208;49.826;6.004;2022-10-15T17:13:21;15.50;99.90
14248;DHT22;7208;49.826;6.004;2022-10-15T17:15:46;15.50;99.90
14248;DHT22;7208;49.826;6.004;2022-10-15T17:18:13;15.50;99.90
14248;DHT22;7208;49.826;6.004;2022-10-15T17:20:44;15.50;99.90
14248;DHT22;7208;49.826;6.004;2022-10-15T17:23:09;15.60;99.90
14248;DHT22;7208;49.826;6.004;2022-10-15T17:25:35;15.60;99.90
14248;DHT22;7208;49.826;6.004;2022-10-15T17:28:01;15.50;99.90
14248;DHT22;7208;49.826;6.004;2022-10-15T17:30:26;15.50;99.90
14248;DHT22;7208;49.826;6.004;2022-10-15T17:32:52;15.50;99.90
14248;DHT22;7208;49.826;6.004;2022-10-15T17:35:17;15.50;99.90
14248;DHT22;7208;49.826;6.004;2022-10-15T17:37:44;15.40;99.90
14248;DHT22;7208;49.826;6.004;2022-10-15T17:40:11;15.40;99.90
14248;DHT22;7208;49.826;6.004;2022-10-15T17:42:36;15.40;99.90
14248;DHT22;7208;49.826;6.004;2022-10-15T17:45:10;15.40;99.90
14248;DHT22;7208;49.826;6.004;2022-10-15T17:47:39;15.40;99.90
14248;DHT22;7208;49.826;6.004;2022-10-15T17:50:05;15.30;99.90
14248;DHT22;7208;49.826;6.004;2022-10-15T17:52:31;15.30;99.90
14248;DHT22;7208;49.826;6.004;2022-10-15T17:54:57;15.30;99.90
14248;DHT22;7208;49.826;6.004;2022-10-15T17:57:23;15.30;99.90
14248;DHT22;7208;49.826;6.004;2022-10-15T17:59:49;15.20;99.90
14248;DHT22;7208;49.826;6.004;2022-10-15T18:02:14;15.20;99.90
14248;DHT22;7208;49.826;6.004;2022-10-15T18:04:40;15.20;99.90
14248;DHT22;7208;49.826;6.004;2022-10-15T18:07:06;15.10;99.90
14248;DHT22;7208;49.826;6.004;2022-10-15T18:09:31;15.10;99.90
14248;DHT22;7208;49.826;6.004;2022-10-15T18:11:59;15.00;99.90
14248;DHT22;7208;49.826;6.004;2022-10-15T18:14:26;14.90;99.90
14248;DHT22;7208;49.826;6.004;2022-10-15T18:16:52;14.80;99.90
14248;DHT22;7208;49.826;6.004;2022-10-15T18:19:18;14.80;99.90
14248;DHT22;7208;49.826;6.004;2022-10-15T18:21:43;14.60;99.90
14248;DHT22;7208;49.826;6.004;2022-10-15T18:24:09;14.60;99.90
14248;DHT22;7208;49.826;6.004;2022-10-15T18:26:34;14.50;99.90
14248;DHT22;7208;49.826;6.004;2022-10-15T18:29:00;14.40;99.90
14248;DHT22;7208;49.826;6.004;2022-10-15T18:31:26;14.40;99.90
14248;DHT22;7208;49.826;6.004;2022-10-15T18:33:54;14.20;99.90
14248;DHT22;7208;49.826;6.004;2022-10-15T18:36:21;14.10;99.90
14248;DHT22;7208;49.826;6.004;2022-10-15T18:38:47;14.10;99.90
14248;DHT22;7208;49.826;6.004;2022-10-15T18:41:19;14.10;99.90
14248;DHT22;7208;49.826;6.004;2022-10-15T18:43:53;14.00;99.90
14248;DHT22;7208;49.826;6.004;2022-10-15T18:46:19;14.00;99.90
14248;DHT22;7208;49.826;6.004;2022-10-15T18:48:45;14.10;99.90
14248;DHT22;7208;49.826;6.004;2022-10-15T18:51:11;14.10;99.90
14248;DHT22;7208;49.826;6.004;2022-10-15T18:53:37;14.10;99.90
14248;DHT22;7208;49.826;6.004;2022-10-15T18:56:04;14.00;99.90
14248;DHT22;7208;49.826;6.004;2022-10-15T18:58:30;14.00;99.90
14248;DHT22;7208;49.826;6.004;2022-10-15T19:00:56;14.00;99.90
14248;DHT22;7208;49.826;6.004;2022-10-15T19:03:23;13.90;99.90
14248;DHT22;7208;49.826;6.004;2022-10-15T19:05:49;13.90;99.90
14248;DHT22;7208;49.826;6.004;2022-10-15T19:08:16;14.00;99.90
14248;DHT22;7208;49.826;6.004;2022-10-15T19:10:41;14.00;99.90
14248;DHT22;7208;49.826;6.004;2022-10-15T19:13:07;14.00;99.90
14248;DHT22;7208;49.826;6.004;2022-10-15T19:15:34;14.00;99.90
14248;DHT22;7208;49.826;6.004;2022-10-15T19:18:00;14.10;99.90
14248;DHT22;7208;49.826;6.004;2022-10-15T19:20:26;14.10;99.90
14248;DHT22;7208;49.826;6.004;2022-10-15T19:22:51;14.10;99.90
14248;DHT22;7208;49.826;6.004;2022-10-15T19:25:17;14.10;99.90
14248;DHT22;7208;49.826;6.004;2022-10-15T19:27:43;14.10;99.90
14248;DHT22;7208;49.826;6.004;2022-10-15T19:30:09;14.10;99.90
14248;DHT22;7208;49.826;6.004;2022-10-15T19:32:35;14.00;99.90
14248;DHT22;7208;49.826;6.004;2022-10-15T19:35:00;14.00;99.90
14248;DHT22;7208;49.826;6.004;2022-10-15T19:37:28;14.10;99.90
14248;DHT22;7208;49.826;6.004;2022-10-15T19:39:53;14.00;99.90
14248;DHT22;7208;49.826;6.004;2022-10-15T19:42:19;14.00;99.90
14248;DHT22;7208;49.826;6.004;2022-10-15T19:44:44;14.00;99.90
14248;DHT22;7208;49.826;6.004;2022-10-15T19:47:10;14.00;99.90
14248;DHT22;7208;49.826;6.004;2022-10-15T19:49:36;14.10;99.90
14248;DHT22;7208;49.826;6.004;2022-10-15T19:52:01;14.10;99.90
14248;DHT22;7208;49.826;6.004;2022-10-15T19:54:27;14.00;99.90
14248;DHT22;7208;49.826;6.004;2022-10-15T19:56:53;13.90;99.90
14248;DHT22;7208;49.826;6.004;2022-10-15T19:59:19;13.90;99.90
14248;DHT22;7208;49.826;6.004;2022-10-15T20:01:44;13.80;99.90
14248;DHT22;7208;49.826;6.004;2022-10-15T20:04:10;13.80;99.90
14248;DHT22;7208;49.826;6.004;2022-10-15T20:06:36;13.80;99.90
14248;DHT22;7208;49.826;6.004;2022-10-15T20:09:06;13.70;99.90
14248;DHT22;7208;49.826;6.004;2022-10-15T20:11:32;13.60;99.90
14248;DHT22;7208;49.826;6.004;2022-10-15T20:13:58;13.60;99.90
14248;DHT22;7208;49.826;6.004;2022-10-15T20:16:24;13.40;99.90
14248;DHT22;7208;49.826;6.004;2022-10-15T20:18:50;13.40;99.90
14248;DHT22;7208;49.826;6.004;2022-10-15T20:21:16;13.40;99.90
14248;DHT22;7208;49.826;6.004;2022-10-15T20:23:43;13.40;99.90
14248;DHT22;7208;49.826;6.004;2022-10-15T20:26:11;13.50;99.90
14248;DHT22;7208;49.826;6.004;2022-10-15T20:28:39;13.50;99.90
14248;DHT22;7208;49.826;6.004;2022-10-15T20:31:07;13.50;99.90
14248;DHT22;7208;49.826;6.004;2022-10-15T20:33:33;13.50;99.90
14248;DHT22;7208;49.826;6.004;2022-10-15T20:36:06;13.60;99.90
14248;DHT22;7208;49.826;6.004;2022-10-15T20:38:33;13.70;99.90
14248;DHT22;7208;49.826;6.004;2022-10-15T20:40:59;13.80;99.90
14248;DHT22;7208;49.826;6.004;2022-10-15T20:43:25;13.90;99.90
14248;DHT22;7208;49.826;6.004;2022-10-15T20:45:50;13.90;99.90
14248;DHT22;7208;49.826;6.004;2022-10-15T20:48:22;13.80;99.90
14248;DHT22;7208;49.826;6.004;2022-10-15T20:50:50;13.80;99.90
14248;DHT22;7208;49.826;6.004;2022-10-15T20:53:17;13.80;99.90
14248;DHT22;7208;49.826;6.004;2022-10-15T20:55:44;13.90;99.90
14248;DHT22;7208;49.826;6.004;2022-10-15T20:58:10;13.90;99.90
14248;DHT22;7208;49.826;6.004;2022-10-15T21:00:36;14.00;99.90
14248;DHT22;7208;49.826;6.004;2022-10-15T21:03:01;14.00;99.90
14248;DHT22;7208;49.826;6.004;2022-10-15T21:05:27;14.00;99.90
14248;DHT22;7208;49.826;6.004;2022-10-15T21:07:56;14.10;99.90
14248;DHT22;7208;49.826;6.004;2022-10-15T21:10:23;14.10;99.90
14248;DHT22;7208;49.826;6.004;2022-10-15T21:12:48;14.10;99.90
14248;DHT22;7208;49.826;6.004;2022-10-15T21:15:14;14.00;99.90
14248;DHT22;7208;49.826;6.004;2022-10-15T21:17:39;13.90;99.90
14248;DHT22;7208;49.826;6.004;2022-10-15T21:20:06;13.90;99.90
14248;DHT22;7208;49.826;6.004;2022-10-15T21:22:32;13.80;99.90
14248;DHT22;7208;49.826;6.004;2022-10-15T21:24:58;13.80;99.90
14248;DHT22;7208;49.826;6.004;2022-10-15T21:27:23;13.80;99.90
14248;DHT22;7208;49.826;6.004;2022-10-15T21:29:49;13.70;99.90
14248;DHT22;7208;49.826;6.004;2022-10-15T21:32:15;13.70;99.90
14248;DHT22;7208;49.826;6.004;2022-10-15T21:34:40;13.70;99.90
14248;DHT22;7208;49.826;6.004;2022-10-15T21:37:06;13.60;99.90
14248;DHT22;7208;49.826;6.004;2022-10-15T21:39:32;13.70;99.90
14248;DHT22;7208;49.826;6.004;2022-10-15T21:41:58;13.60;99.90
14248;DHT22;7208;49.826;6.004;2022-10-15T21:44:24;13.60;99.90
14248;DHT22;7208;49.826;6.004;2022-10-15T21:46:49;13.50;99.90
14248;DHT22;7208;49.826;6.004;2022-10-15T21:49:15;13.50;99.90
14248;DHT22;7208;49.826;6.004;2022-10-15T21:51:40;13.50;99.90
14248;DHT22;7208;49.826;6.004;2022-10-15T21:54:07;13.50;99.90
14248;DHT22;7208;49.826;6.004;2022-10-15T21:56:33;13.40;99.90
14248;DHT22;7208;49.826;6.004;2022-10-15T21:58:59;13.40;99.90
14248;DHT22;7208;49.826;6.004;2022-10-15T22:01:28;13.40;99.90
14248;DHT22;7208;49.826;6.004;2022-10-15T22:04:01;13.30;99.90
14248;DHT22;7208;49.826;6.004;2022-10-15T22:06:28;13.30;99.90
14248;DHT22;7208;49.826;6.004;2022-10-15T22:08:54;13.30;99.90
14248;DHT22;7208;49.826;6.004;2022-10-15T22:11:22;13.30;99.90
14248;DHT22;7208;49.826;6.004;2022-10-15T22:13:51;13.30;99.90
14248;DHT22;7208;49.826;6.004;2022-10-15T22:16:18;13.20;99.90
14248;DHT22;7208;49.826;6.004;2022-10-15T22:18:44;13.20;99.90
14248;DHT22;7208;49.826;6.004;2022-10-15T22:21:16;13.20;99.90
14248;DHT22;7208;49.826;6.004;2022-10-15T22:23:44;13.20;99.90
14248;DHT22;7208;49.826;6.004;2022-10-15T22:26:11;13.20;99.90
14248;DHT22;7208;49.826;6.004;2022-10-15T22:28:36;13.20;99.90
14248;DHT22;7208;49.826;6.004;2022-10-15T22:31:03;13.20;99.90
14248;DHT22;7208;49.826;6.004;2022-10-15T22:33:29;13.20;99.90
14248;DHT22;7208;49.826;6.004;2022-10-15T22:36:02;13.20;99.90
14248;DHT22;7208;49.826;6.004;2022-10-15T22:38:28;13.10;99.90
14248;DHT22;7208;49.826;6.004;2022-10-15T22:40:54;13.10;99.90
14248;DHT22;7208;49.826;6.004;2022-10-15T22:43:20;13.00;99.90
14248;DHT22;7208;49.826;6.004;2022-10-15T22:45:46;13.00;99.90
14248;DHT22;7208;49.826;6.004;2022-10-15T22:48:12;13.00;99.90
14248;DHT22;7208;49.826;6.004;2022-10-15T22:50:38;13.00;99.90
14248;DHT22;7208;49.826;6.004;2022-10-15T22:53:04;13.00;99.90
14248;DHT22;7208;49.826;6.004;2022-10-15T22:55:30;13.00;99.90
14248;DHT22;7208;49.826;6.004;2022-10-15T22:57:55;13.00;99.90
14248;DHT22;7208;49.826;6.004;2022-10-15T23:00:21;13.00;99.90
14248;DHT22;7208;49.826;6.004;2022-10-15T23:02:47;13.00;99.90
14248;DHT22;7208;49.826;6.004;2022-10-15T23:05:12;12.90;99.90
14248;DHT22;7208;49.826;6.004;2022-10-15T23:07:41;13.00;99.90
14248;DHT22;7208;49.826;6.004;2022-10-15T23:10:07;13.00;99.90
14248;DHT22;7208;49.826;6.004;2022-10-15T23:12:36;12.90;99.90
14248;DHT22;7208;49.826;6.004;2022-10-15T23:15:02;12.90;99.90
14248;DHT22;7208;49.826;6.004;2022-10-15T23:17:31;12.90;99.90
14248;DHT22;7208;49.826;6.004;2022-10-15T23:19:57;12.90;99.90
14248;DHT22;7208;49.826;6.004;2022-10-15T23:22:22;12.80;99.90
14248;DHT22;7208;49.826;6.004;2022-10-15T23:24:48;12.80;99.90
14248;DHT22;7208;49.826;6.004;2022-10-15T23:27:14;12.80;99.90
14248;DHT22;7208;49.826;6.004;2022-10-15T23:29:40;12.80;99.90
14248;DHT22;7208;49.826;6.004;2022-10-15T23:32:07;12.80;99.90
14248;DHT22;7208;49.826;6.004;2022-10-15T23:34:33;12.90;99.90
14248;DHT22;7208;49.826;6.004;2022-10-15T23:36:58;12.90;99.90
14248;DHT22;7208;49.826;6.004;2022-10-15T23:39:25;12.90;99.90
14248;DHT22;7208;49.826;6.004;2022-10-15T23:41:52;12.90;99.90
14248;DHT22;7208;49.826;6.004;2022-10-15T23:44:17;12.90;99.90
14248;DHT22;7208;49.826;6.004;2022-10-15T23:46:43;13.00;99.90
14248;DHT22;7208;49.826;6.004;2022-10-15T23:49:10;13.00;99.90
14248;DHT22;7208;49.826;6.004;2022-10-15T23:51:36;13.00;99.90
14248;DHT22;7208;49.826;6.004;2022-10-15T23:54:07;12.90;99.90
14248;DHT22;7208;49.826;6.004;2022-10-15T23:56:34;13.00;99.90
14248;DHT22;7208;49.826;6.004;2022-10-15T23:58:59;13.00;99.90
